sensor_id;sensor_type;location;lat;lon;timestamp;pressure;altitude;pressure_sealevel;temperature;humidity
68996;BME280;56056;48.990;12.146;2023-11-21T00:01:40;97318.81;;;13.63;82.17
68996;BME280;56056;48.990;12.146;2023-11-21T00:04:06;97317.78;;;14.11;80.43
68996;BME280;56056;48.990;12.146;2023-11-21T00:06:33;97313.31;;;14.05;78.14
68996;BME280;56056;48.990;12.146;2023-11-21T00:08:58;97321.63;;;14.15;77.59
68996;BME280;56056;48.990;12.146;2023-11-21T00:11:24;97318.31;;;14.39;77.66
68996;BME280;56056;48.990;12.146;2023-11-21T00:13:51;97306.41;;;13.97;79.02
68996;BME280;56056;48.990;12.146;2023-11-21T00:16:18;97322.84;;;14.06;78.00
68996;BME280;56056;48.990;12.146;2023-11-21T00:18:44;97324.88;;;14.04;78.37
68996;BME280;56056;48.990;12.146;2023-11-21T00:21:12;97326.53;;;13.98;78.51
68996;BME280;56056;48.990;12.146;2023-11-21T00:23:38;97331.75;;;14.05;79.88
68996;BME280;56056;48.990;12.146;2023-11-21T00:26:05;97323.63;;;14.13;78.37
68996;BME280;56056;48.990;12.146;2023-11-21T00:28:30;97319.38;;;14.18;78.38
68996;BME280;56056;48.990;12.146;2023-11-21T00:30:56;97324.41;;;14.53;75.72
68996;BME280;56056;48.990;12.146;2023-11-21T00:33:23;97318.34;;;14.33;75.01
68996;BME280;56056;48.990;12.146;2023-11-21T00:35:50;97325.69;;;14.11;76.85
68996;BME280;56056;48.990;12.146;2023-11-21T00:38:16;97330.94;;;13.98;77.91
68996;BME280;56056;48.990;12.146;2023-11-21T00:40:45;97321.22;;;13.85;78.42
68996;BME280;56056;48.990;12.146;2023-11-21T00:43:11;97323.25;;;13.89;78.27
68996;BME280;56056;48.990;12.146;2023-11-21T00:45:37;97333.00;;;13.56;79.82
68996;BME280;56056;48.990;12.146;2023-11-21T00:48:03;97328.13;;;13.66;80.38
68996;BME280;56056;48.990;12.146;2023-11-21T00:50:31;97321.22;;;13.52;80.62
68996;BME280;56056;48.990;12.146;2023-11-21T00:52:57;97331.38;;;13.68;80.30
68996;BME280;56056;48.990;12.146;2023-11-21T00:55:23;97323.28;;;13.63;81.61
68996;BME280;56056;48.990;12.146;2023-11-21T00:57:50;97322.47;;;13.82;79.32
68996;BME280;56056;48.990;12.146;2023-11-21T01:00:17;97323.66;;;14.00;80.65
68996;BME280;56056;48.990;12.146;2023-11-21T01:02:43;97328.72;;;14.14;77.77
68996;BME280;56056;48.990;12.146;2023-11-21T01:05:14;97335.63;;;13.69;81.97
68996;BME280;56056;48.990;12.146;2023-11-21T01:07:41;97337.03;;;13.65;80.48
68996;BME280;56056;48.990;12.146;2023-11-21T01:10:08;97336.22;;;13.58;81.13
68996;BME280;56056;48.990;12.146;2023-11-21T01:12:35;97333.41;;;13.59;80.44
68996;BME280;56056;48.990;12.146;2023-11-21T01:15:03;97337.06;;;13.72;81.21
68996;BME280;56056;48.990;12.146;2023-11-21T01:17:29;97343.16;;;13.99;80.79
68996;BME280;56056;48.990;12.146;2023-11-21T01:19:55;97340.69;;;13.77;81.48
68996;BME280;56056;48.990;12.146;2023-11-21T01:22:21;97340.91;;;13.69;82.14
68996;BME280;56056;48.990;12.146;2023-11-21T01:24:53;97334.84;;;13.75;82.34
68996;BME280;56056;48.990;12.146;2023-11-21T01:27:19;97330.38;;;13.82;80.88
68996;BME280;56056;48.990;12.146;2023-11-21T01:29:45;97333.41;;;13.79;81.94
68996;BME280;56056;48.990;12.146;2023-11-21T01:32:11;97330.78;;;13.79;81.38
68996;BME280;56056;48.990;12.146;2023-11-21T01:34:37;97329.50;;;14.28;79.67
68996;BME280;56056;48.990;12.146;2023-11-21T01:37:03;97330.94;;;13.98;79.95
68996;BME280;56056;48.990;12.146;2023-11-21T01:39:31;97328.50;;;14.16;80.57
68996;BME280;56056;48.990;12.146;2023-11-21T01:41:58;97329.66;;;14.47;78.93
68996;BME280;56056;48.990;12.146;2023-11-21T01:44:24;97334.00;;;14.21;76.38
68996;BME280;56056;48.990;12.146;2023-11-21T01:46:50;97330.53;;;14.27;76.20
68996;BME280;56056;48.990;12.146;2023-11-21T01:49:17;97326.13;;;13.94;78.49
68996;BME280;56056;48.990;12.146;2023-11-21T01:51:44;97338.47;;;13.87;86.16
68996;BME280;56056;48.990;12.146;2023-11-21T01:54:12;97335.84;;;13.87;81.02
68996;BME280;56056;48.990;12.146;2023-11-21T01:56:38;97333.81;;;13.63;84.46
68996;BME280;56056;48.990;12.146;2023-11-21T01:59:06;97336.25;;;13.64;82.57
68996;BME280;56056;48.990;12.146;2023-11-21T02:01:33;97325.03;;;13.29;83.13
68996;BME280;56056;48.990;12.146;2023-11-21T02:03:59;97336.03;;;13.73;85.19
68996;BME280;56056;48.990;12.146;2023-11-21T02:06:24;97333.38;;;13.66;83.56
68996;BME280;56056;48.990;12.146;2023-11-21T02:08:51;97337.06;;;13.85;82.20
68996;BME280;56056;48.990;12.146;2023-11-21T02:11:17;97324.88;;;14.04;80.86
68996;BME280;56056;48.990;12.146;2023-11-21T02:13:44;97329.94;;;14.05;80.40
68996;BME280;56056;48.990;12.146;2023-11-21T02:16:14;97329.94;;;14.12;79.96
68996;BME280;56056;48.990;12.146;2023-11-21T02:18:40;97326.28;;;14.13;80.18
68996;BME280;56056;48.990;12.146;2023-11-21T02:21:07;97324.25;;;14.08;80.79
68996;BME280;56056;48.990;12.146;2023-11-21T02:23:34;97326.72;;;13.83;84.70
68996;BME280;56056;48.990;12.146;2023-11-21T02:26:00;97315.56;;;13.75;86.06
68996;BME280;56056;48.990;12.146;2023-11-21T02:28:30;97322.88;;;13.79;85.37
68996;BME280;56056;48.990;12.146;2023-11-21T02:30:55;97317.56;;;13.86;89.74
68996;BME280;56056;48.990;12.146;2023-11-21T02:33:23;97326.50;;;13.85;90.83
68996;BME280;56056;48.990;12.146;2023-11-21T02:35:49;97319.63;;;13.90;88.91
68996;BME280;56056;48.990;12.146;2023-11-21T02:38:15;97313.72;;;14.22;84.06
68996;BME280;56056;48.990;12.146;2023-11-21T02:40:42;97315.09;;;14.24;85.69
68996;BME280;56056;48.990;12.146;2023-11-21T02:43:08;97317.16;;;14.22;81.86
68996;BME280;56056;48.990;12.146;2023-11-21T02:45:34;97316.75;;;14.25;82.35
68996;BME280;56056;48.990;12.146;2023-11-21T02:48:00;97303.13;;;14.28;85.68
68996;BME280;56056;48.990;12.146;2023-11-21T02:50:26;97306.59;;;14.22;83.64
68996;BME280;56056;48.990;12.146;2023-11-21T02:52:52;97301.28;;;14.35;82.53
68996;BME280;56056;48.990;12.146;2023-11-21T02:55:18;97300.06;;;14.38;83.25
68996;BME280;56056;48.990;12.146;2023-11-21T02:57:45;97299.66;;;14.41;82.60
68996;BME280;56056;48.990;12.146;2023-11-21T03:00:12;97292.53;;;14.48;81.04
68996;BME280;56056;48.990;12.146;2023-11-21T03:02:40;97295.16;;;14.55;80.64
68996;BME280;56056;48.990;12.146;2023-11-21T03:05:07;97296.19;;;14.54;79.01
68996;BME280;56056;48.990;12.146;2023-11-21T03:07:34;97290.94;;;14.40;81.97
68996;BME280;56056;48.990;12.146;2023-11-21T03:10:00;97285.50;;;14.15;79.78
68996;BME280;56056;48.990;12.146;2023-11-21T03:12:26;97289.34;;;14.26;80.93
68996;BME280;56056;48.990;12.146;2023-11-21T03:14:53;97293.63;;;14.14;81.15
68996;BME280;56056;48.990;12.146;2023-11-21T03:17:19;97289.59;;;13.91;82.66
68996;BME280;56056;48.990;12.146;2023-11-21T03:19:45;97285.75;;;13.94;80.30
68996;BME280;56056;48.990;12.146;2023-11-21T03:22:11;97281.50;;;13.73;81.64
68996;BME280;56056;48.990;12.146;2023-11-21T03:24:37;97280.88;;;13.78;82.11
68996;BME280;56056;48.990;12.146;2023-11-21T03:27:04;97287.56;;;13.80;81.53
68996;BME280;56056;48.990;12.146;2023-11-21T03:29:30;97282.72;;;13.90;81.63
68996;BME280;56056;48.990;12.146;2023-11-21T03:31:57;97293.25;;;13.90;81.49
68996;BME280;56056;48.990;12.146;2023-11-21T03:34:27;97294.47;;;13.75;81.47
68996;BME280;56056;48.990;12.146;2023-11-21T03:36:53;97284.75;;;13.68;82.12
68996;BME280;56056;48.990;12.146;2023-11-21T03:39:20;97296.28;;;13.41;83.45
68996;BME280;56056;48.990;12.146;2023-11-21T03:41:46;97291.63;;;13.56;84.37
68996;BME280;56056;48.990;12.146;2023-11-21T03:44:12;97287.19;;;13.63;81.67
68996;BME280;56056;48.990;12.146;2023-11-21T03:46:38;97277.66;;;13.56;82.26
68996;BME280;56056;48.990;12.146;2023-11-21T03:49:06;97296.69;;;13.58;83.45
68996;BME280;56056;48.990;12.146;2023-11-21T03:51:33;97290.22;;;13.40;83.46
68996;BME280;56056;48.990;12.146;2023-11-21T03:53:59;97288.38;;;13.61;82.52
68996;BME280;56056;48.990;12.146;2023-11-21T03:56:25;97298.91;;;13.34;84.39
68996;BME280;56056;48.990;12.146;2023-11-21T03:58:51;97299.28;;;13.31;85.44
68996;BME280;56056;48.990;12.146;2023-11-21T04:01:21;97293.25;;;13.37;85.92
68996;BME280;56056;48.990;12.146;2023-11-21T04:03:47;97296.59;;;13.11;86.53
68996;BME280;56056;48.990;12.146;2023-11-21T04:06:14;97297.91;;;12.81;89.84
68996;BME280;56056;48.990;12.146;2023-11-21T04:08:40;97306.81;;;12.73;91.52
68996;BME280;56056;48.990;12.146;2023-11-21T04:11:06;97299.13;;;12.71;92.49
68996;BME280;56056;48.990;12.146;2023-11-21T04:13:32;97309.28;;;12.40;94.14
68996;BME280;56056;48.990;12.146;2023-11-21T04:15:58;97302.22;;;12.40;94.29
68996;BME280;56056;48.990;12.146;2023-11-21T04:18:23;97301.75;;;12.30;95.42
68996;BME280;56056;48.990;12.146;2023-11-21T04:20:49;97307.44;;;12.34;96.02
68996;BME280;56056;48.990;12.146;2023-11-21T04:23:17;97313.06;;;11.96;99.15
68996;BME280;56056;48.990;12.146;2023-11-21T04:25:43;97314.41;;;11.85;100.00
68996;BME280;56056;48.990;12.146;2023-11-21T04:28:09;97318.66;;;11.86;100.00
68996;BME280;56056;48.990;12.146;2023-11-21T04:30:34;97312.56;;;12.14;97.84
68996;BME280;56056;48.990;12.146;2023-11-21T04:33:00;97311.41;;;12.23;98.90
68996;BME280;56056;48.990;12.146;2023-11-21T04:35:26;97316.13;;;12.34;97.82
68996;BME280;56056;48.990;12.146;2023-11-21T04:37:52;97315.16;;;12.35;95.90
68996;BME280;56056;48.990;12.146;2023-11-21T04:40:19;97308.41;;;12.26;96.47
68996;BME280;56056;48.990;12.146;2023-11-21T04:42:46;97313.69;;;11.98;100.00
68996;BME280;56056;48.990;12.146;2023-11-21T04:45:12;97310.00;;;11.92;99.27
68996;BME280;56056;48.990;12.146;2023-11-21T04:47:38;97307.31;;;12.14;99.03
68996;BME280;56056;48.990;12.146;2023-11-21T04:50:05;97304.91;;;12.12;98.11
68996;BME280;56056;48.990;12.146;2023-11-21T04:52:31;97318.44;;;12.51;95.16
68996;BME280;56056;48.990;12.146;2023-11-21T04:54:59;97322.75;;;12.65;92.70
68996;BME280;56056;48.990;12.146;2023-11-21T04:57:28;97319.38;;;12.71;92.99
68996;BME280;56056;48.990;12.146;2023-11-21T04:59:57;97312.09;;;12.80;90.23
68996;BME280;56056;48.990;12.146;2023-11-21T05:02:23;97313.38;;;12.90;89.99
68996;BME280;56056;48.990;12.146;2023-11-21T05:04:48;97316.03;;;13.04;90.10
68996;BME280;56056;48.990;12.146;2023-11-21T05:07:14;97297.09;;;13.28;88.27
68996;BME280;56056;48.990;12.146;2023-11-21T05:09:42;97299.91;;;13.33;87.26
68996;BME280;56056;48.990;12.146;2023-11-21T05:12:10;97298.91;;;13.41;86.25
68996;BME280;56056;48.990;12.146;2023-11-21T05:14:38;97299.84;;;13.20;86.55
68996;BME280;56056;48.990;12.146;2023-11-21T05:17:04;97316.41;;;12.94;87.80
68996;BME280;56056;48.990;12.146;2023-11-21T05:19:30;97294.38;;;12.47;90.90
68996;BME280;56056;48.990;12.146;2023-11-21T05:21:55;97301.03;;;12.43;93.32
68996;BME280;56056;48.990;12.146;2023-11-21T05:24:21;97304.03;;;12.46;93.45
68996;BME280;56056;48.990;12.146;2023-11-21T05:26:47;97310.53;;;12.51;93.83
68996;BME280;56056;48.990;12.146;2023-11-21T05:29:13;97308.44;;;12.74;92.34
68996;BME280;56056;48.990;12.146;2023-11-21T05:31:40;97309.25;;;12.81;89.78
68996;BME280;56056;48.990;12.146;2023-11-21T05:34:06;97310.06;;;13.50;86.83
68996;BME280;56056;48.990;12.146;2023-11-21T05:36:32;97307.81;;;12.72;89.84
68996;BME280;56056;48.990;12.146;2023-11-21T05:38:58;97318.66;;;13.04;88.51
68996;BME280;56056;48.990;12.146;2023-11-21T05:41:23;97317.53;;;13.26;87.72
68996;BME280;56056;48.990;12.146;2023-11-21T05:43:49;97325.63;;;13.31;86.92
68996;BME280;56056;48.990;12.146;2023-11-21T05:46:15;97324.44;;;13.47;86.46
68996;BME280;56056;48.990;12.146;2023-11-21T05:48:42;97324.03;;;13.43;86.06
68996;BME280;56056;48.990;12.146;2023-11-21T05:51:08;97327.06;;;13.27;86.24
68996;BME280;56056;48.990;12.146;2023-11-21T05:53:34;97328.88;;;13.27;86.22
68996;BME280;56056;48.990;12.146;2023-11-21T05:56:00;97328.31;;;13.44;85.00
68996;BME280;56056;48.990;12.146;2023-11-21T05:58:26;97333.81;;;13.56;84.82
68996;BME280;56056;48.990;12.146;2023-11-21T06:00:52;97340.91;;;13.69;84.01
68996;BME280;56056;48.990;12.146;2023-11-21T06:03:18;97337.47;;;14.02;82.25
68996;BME280;56056;48.990;12.146;2023-11-21T06:05:45;97336.41;;;13.36;83.37
68996;BME280;56056;48.990;12.146;2023-11-21T06:08:11;97335.00;;;13.40;84.07
68996;BME280;56056;48.990;12.146;2023-11-21T06:10:37;97339.50;;;12.98;85.58
68996;BME280;56056;48.990;12.146;2023-11-21T06:13:03;97335.66;;;12.94;86.96
68996;BME280;56056;48.990;12.146;2023-11-21T06:15:29;97339.72;;;13.04;86.38
68996;BME280;56056;48.990;12.146;2023-11-21T06:17:55;97343.41;;;13.09;87.15
68996;BME280;56056;48.990;12.146;2023-11-21T06:20:22;97343.19;;;13.11;86.45
68996;BME280;56056;48.990;12.146;2023-11-21T06:22:50;97346.50;;;13.26;87.05
68996;BME280;56056;48.990;12.146;2023-11-21T06:25:16;97345.31;;;13.42;85.93
68996;BME280;56056;48.990;12.146;2023-11-21T06:27:45;97347.94;;;13.35;83.50
68996;BME280;56056;48.990;12.146;2023-11-21T06:30:12;97348.78;;;13.42;83.88
68996;BME280;56056;48.990;12.146;2023-11-21T06:32:39;97346.78;;;13.71;83.56
68996;BME280;56056;48.990;12.146;2023-11-21T06:35:07;97349.63;;;13.56;83.02
68996;BME280;56056;48.990;12.146;2023-11-21T06:37:33;97364.41;;;13.44;83.65
68996;BME280;56056;48.990;12.146;2023-11-21T06:40:01;97364.41;;;13.57;83.26
68996;BME280;56056;48.990;12.146;2023-11-21T06:42:29;97359.75;;;13.53;83.10
68996;BME280;56056;48.990;12.146;2023-11-21T06:44:56;97359.75;;;13.59;82.89
68996;BME280;56056;48.990;12.146;2023-11-21T06:47:23;97364.63;;;13.89;80.35
68996;BME280;56056;48.990;12.146;2023-11-21T06:49:52;97373.56;;;14.01;78.79
68996;BME280;56056;48.990;12.146;2023-11-21T06:52:18;97371.53;;;14.10;79.33
68996;BME280;56056;48.990;12.146;2023-11-21T06:54:44;97366.50;;;15.00;74.97
68996;BME280;56056;48.990;12.146;2023-11-21T06:57:12;97368.97;;;14.95;73.70
68996;BME280;56056;48.990;12.146;2023-11-21T06:59:38;97372.09;;;15.23;72.96
68996;BME280;56056;48.990;12.146;2023-11-21T07:02:04;97373.41;;;15.46;70.67
68996;BME280;56056;48.990;12.146;2023-11-21T07:04:32;97377.09;;;17.85;63.32
68996;BME280;56056;48.990;12.146;2023-11-21T07:06:58;97380.59;;;18.56;57.96
68996;BME280;56056;48.990;12.146;2023-11-21T07:09:24;97380.72;;;17.72;63.62
68996;BME280;56056;48.990;12.146;2023-11-21T07:11:51;97385.84;;;17.25;68.45
68996;BME280;56056;48.990;12.146;2023-11-21T07:14:18;97388.09;;;15.35;71.43
68996;BME280;56056;48.990;12.146;2023-11-21T07:16:45;97398.13;;;13.95;77.47
68996;BME280;56056;48.990;12.146;2023-11-21T07:19:11;97396.69;;;13.79;79.56
68996;BME280;56056;48.990;12.146;2023-11-21T07:21:38;97405.00;;;14.09;78.96
68996;BME280;56056;48.990;12.146;2023-11-21T07:24:07;97404.78;;;13.64;80.30
68996;BME280;56056;48.990;12.146;2023-11-21T07:26:33;97399.53;;;13.71;81.19
68996;BME280;56056;48.990;12.146;2023-11-21T07:29:00;97400.28;;;13.58;81.78
68996;BME280;56056;48.990;12.146;2023-11-21T07:31:27;97394.22;;;13.64;82.74
68996;BME280;56056;48.990;12.146;2023-11-21T07:33:53;97405.16;;;13.61;83.33
68996;BME280;56056;48.990;12.146;2023-11-21T07:36:19;97406.19;;;13.67;83.27
68996;BME280;56056;48.990;12.146;2023-11-21T07:38:48;97397.09;;;13.76;81.21
68996;BME280;56056;48.990;12.146;2023-11-21T07:41:14;97402.16;;;13.98;80.94
68996;BME280;56056;48.990;12.146;2023-11-21T07:43:43;97398.91;;;14.09;80.12
68996;BME280;56056;48.990;12.146;2023-11-21T07:46:10;97407.03;;;13.87;80.66
68996;BME280;56056;48.990;12.146;2023-11-21T07:48:39;97405.75;;;13.57;80.85
68996;BME280;56056;48.990;12.146;2023-11-21T07:51:06;97413.06;;;13.07;86.22
68996;BME280;56056;48.990;12.146;2023-11-21T07:53:34;97417.00;;;12.83;88.15
68996;BME280;56056;48.990;12.146;2023-11-21T07:56:04;97416.00;;;12.84;89.88
68996;BME280;56056;48.990;12.146;2023-11-21T07:58:31;97423.13;;;12.90;89.63
68996;BME280;56056;48.990;12.146;2023-11-21T08:00:59;97430.06;;;13.04;89.02
68996;BME280;56056;48.990;12.146;2023-11-21T08:03:25;97419.91;;;13.42;86.07
68996;BME280;56056;48.990;12.146;2023-11-21T08:05:53;97418.03;;;13.23;85.79
68996;BME280;56056;48.990;12.146;2023-11-21T08:08:19;97414.72;;;13.14;87.57
68996;BME280;56056;48.990;12.146;2023-11-21T08:10:45;97423.88;;;14.13;82.40
68996;BME280;56056;48.990;12.146;2023-11-21T08:13:22;97418.59;;;14.79;78.01
68996;BME280;56056;48.990;12.146;2023-11-21T08:15:48;97426.72;;;13.91;81.53
68996;BME280;56056;48.990;12.146;2023-11-21T08:18:14;97419.97;;;13.69;81.74
68996;BME280;56056;48.990;12.146;2023-11-21T08:20:40;97426.00;;;13.50;83.29
68996;BME280;56056;48.990;12.146;2023-11-21T08:23:07;97426.28;;;13.68;84.86
68996;BME280;56056;48.990;12.146;2023-11-21T08:25:33;97418.59;;;14.13;82.22
68996;BME280;56056;48.990;12.146;2023-11-21T08:28:00;97426.72;;;14.31;81.18
68996;BME280;56056;48.990;12.146;2023-11-21T08:30:27;97420.84;;;14.42;78.62
68996;BME280;56056;48.990;12.146;2023-11-21T08:32:55;97434.84;;;14.63;77.13
68996;BME280;56056;48.990;12.146;2023-11-21T08:35:23;97436.88;;;14.67;78.08
68996;BME280;56056;48.990;12.146;2023-11-21T08:37:51;97437.22;;;14.98;75.29
68996;BME280;56056;48.990;12.146;2023-11-21T08:40:19;97442.94;;;14.95;74.20
68996;BME280;56056;48.990;12.146;2023-11-21T08:42:46;97429.13;;;14.86;74.30
68996;BME280;56056;48.990;12.146;2023-11-21T08:45:13;97440.53;;;14.80;76.54
68996;BME280;56056;48.990;12.146;2023-11-21T08:47:39;97442.94;;;14.95;74.99
68996;BME280;56056;48.990;12.146;2023-11-21T08:50:07;97444.50;;;15.02;76.10
68996;BME280;56056;48.990;12.146;2023-11-21T08:52:33;97445.47;;;15.21;75.73
68996;BME280;56056;48.990;12.146;2023-11-21T08:54:59;97432.66;;;15.25;75.02
68996;BME280;56056;48.990;12.146;2023-11-21T08:57:29;97445.00;;;15.37;72.97
68996;BME280;56056;48.990;12.146;2023-11-21T08:59:55;97447.59;;;15.51;73.53
68996;BME280;56056;48.990;12.146;2023-11-21T09:02:21;97449.19;;;15.58;72.25
68996;BME280;56056;48.990;12.146;2023-11-21T09:04:48;97444.66;;;15.72;70.94
68996;BME280;56056;48.990;12.146;2023-11-21T09:07:14;97454.50;;;15.52;71.28
68996;BME280;56056;48.990;12.146;2023-11-21T09:09:40;97451.91;;;15.38;72.72
68996;BME280;56056;48.990;12.146;2023-11-21T09:12:07;97461.69;;;15.31;72.52
68996;BME280;56056;48.990;12.146;2023-11-21T09:14:34;97468.72;;;15.51;72.50
68996;BME280;56056;48.990;12.146;2023-11-21T09:17:00;97463.84;;;15.48;72.92
68996;BME280;56056;48.990;12.146;2023-11-21T09:19:26;97462.47;;;15.45;72.83
68996;BME280;56056;48.990;12.146;2023-11-21T09:21:52;97461.41;;;15.53;72.54
68996;BME280;56056;48.990;12.146;2023-11-21T09:24:18;97467.03;;;15.63;71.27
68996;BME280;56056;48.990;12.146;2023-11-21T09:26:44;97475.38;;;15.73;71.51
68996;BME280;56056;48.990;12.146;2023-11-21T09:29:11;97471.53;;;15.69;71.28
68996;BME280;56056;48.990;12.146;2023-11-21T09:31:38;97476.31;;;15.85;71.73
68996;BME280;56056;48.990;12.146;2023-11-21T09:34:04;97466.94;;;15.89;70.89
68996;BME280;56056;48.990;12.146;2023-11-21T09:36:32;97470.56;;;15.95;69.75
68996;BME280;56056;48.990;12.146;2023-11-21T09:38:59;97472.59;;;16.25;69.79
68996;BME280;56056;48.990;12.146;2023-11-21T09:41:34;97473.38;;;16.00;69.65
68996;BME280;56056;48.990;12.146;2023-11-21T09:44:03;97456.88;;;15.73;69.38
68996;BME280;56056;48.990;12.146;2023-11-21T09:46:33;97478.81;;;15.80;70.66
68996;BME280;56056;48.990;12.146;2023-11-21T09:49:02;97479.22;;;15.77;71.00
68996;BME280;56056;48.990;12.146;2023-11-21T09:51:31;97473.69;;;15.85;71.50
68996;BME280;56056;48.990;12.146;2023-11-21T09:53:59;97471.66;;;15.87;70.61
68996;BME280;56056;48.990;12.146;2023-11-21T09:56:27;97469.75;;;15.95;70.73
68996;BME280;56056;48.990;12.146;2023-11-21T09:58:55;97474.97;;;16.08;69.88
68996;BME280;56056;48.990;12.146;2023-11-21T10:01:23;97464.25;;;15.96;69.55
68996;BME280;56056;48.990;12.146;2023-11-21T10:03:50;97471.03;;;16.17;69.38
68996;BME280;56056;48.990;12.146;2023-11-21T10:06:18;97484.22;;;16.24;69.41
68996;BME280;56056;48.990;12.146;2023-11-21T10:08:44;97461.81;;;16.26;69.38
68996;BME280;56056;48.990;12.146;2023-11-21T10:11:11;97464.09;;;16.23;67.98
68996;BME280;56056;48.990;12.146;2023-11-21T10:13:39;97463.03;;;16.24;67.38
68996;BME280;56056;48.990;12.146;2023-11-21T10:16:08;97469.09;;;16.31;67.59
68996;BME280;56056;48.990;12.146;2023-11-21T10:18:38;97467.03;;;16.33;68.45
68996;BME280;56056;48.990;12.146;2023-11-21T10:21:06;97466.56;;;16.43;68.43
68996;BME280;56056;48.990;12.146;2023-11-21T10:23:33;97464.13;;;16.41;68.26
68996;BME280;56056;48.990;12.146;2023-11-21T10:25:59;97459.16;;;16.51;66.45
68996;BME280;56056;48.990;12.146;2023-11-21T10:28:25;97475.28;;;16.50;67.00
68996;BME280;56056;48.990;12.146;2023-11-21T10:30:51;97472.88;;;16.42;67.50
68996;BME280;56056;48.990;12.146;2023-11-21T10:33:27;97474.81;;;16.53;67.27
68996;BME280;56056;48.990;12.146;2023-11-21T10:35:54;97471.78;;;16.49;67.91
68996;BME280;56056;48.990;12.146;2023-11-21T10:38:21;97466.16;;;16.64;66.70
68996;BME280;56056;48.990;12.146;2023-11-21T10:40:50;97469.81;;;16.70;67.97
68996;BME280;56056;48.990;12.146;2023-11-21T10:43:17;97466.72;;;16.73;67.04
68996;BME280;56056;48.990;12.146;2023-11-21T10:45:44;97477.94;;;16.68;67.48
68996;BME280;56056;48.990;12.146;2023-11-21T10:48:13;97468.38;;;16.74;66.28
68996;BME280;56056;48.990;12.146;2023-11-21T10:50:41;97476.94;;;16.69;65.41
68996;BME280;56056;48.990;12.146;2023-11-21T10:53:08;97478.59;;;16.63;67.29
68996;BME280;56056;48.990;12.146;2023-11-21T10:55:34;97477.66;;;16.58;66.05
68996;BME280;56056;48.990;12.146;2023-11-21T10:58:03;97477.19;;;16.61;66.60
68996;BME280;56056;48.990;12.146;2023-11-21T11:00:33;97476.88;;;16.51;65.34
68996;BME280;56056;48.990;12.146;2023-11-21T11:03:00;97471.09;;;16.35;66.59
68996;BME280;56056;48.990;12.146;2023-11-21T11:05:27;97467.56;;;16.42;66.87
68996;BME280;56056;48.990;12.146;2023-11-21T11:08:00;97465.69;;;16.49;66.01
68996;BME280;56056;48.990;12.146;2023-11-21T11:10:28;97466.81;;;16.59;66.95
68996;BME280;56056;48.990;12.146;2023-11-21T11:12:58;97477.50;;;16.71;66.37
68996;BME280;56056;48.990;12.146;2023-11-21T11:15:27;97477.13;;;16.74;63.91
68996;BME280;56056;48.990;12.146;2023-11-21T11:17:53;97478.97;;;16.67;64.10
68996;BME280;56056;48.990;12.146;2023-11-21T11:20:25;97472.88;;;16.67;65.73
68996;BME280;56056;48.990;12.146;2023-11-21T11:23:09;97463.53;;;16.89;64.11
68996;BME280;56056;48.990;12.146;2023-11-21T11:25:56;97471.09;;;16.85;63.98
68996;BME280;56056;48.990;12.146;2023-11-21T11:28:38;97470.69;;;17.25;62.75
68996;BME280;56056;48.990;12.146;2023-11-21T11:31:19;97469.34;;;17.34;61.26
68996;BME280;56056;48.990;12.146;2023-11-21T11:33:57;97468.75;;;17.51;60.02
68996;BME280;56056;48.990;12.146;2023-11-21T11:36:29;97471.81;;;17.66;60.15
68996;BME280;56056;48.990;12.146;2023-11-21T11:38:57;97468.25;;;17.91;60.33
68996;BME280;56056;48.990;12.146;2023-11-21T11:41:27;97464.44;;;17.68;60.51
68996;BME280;56056;48.990;12.146;2023-11-21T11:43:55;97464.03;;;17.53;60.51
68996;BME280;56056;48.990;12.146;2023-11-21T11:46:40;97466.91;;;17.33;60.40
68996;BME280;56056;48.990;12.146;2023-11-21T11:49:07;97470.91;;;17.24;61.79
68996;BME280;56056;48.990;12.146;2023-11-21T11:51:34;97463.19;;;17.04;62.27
68996;BME280;56056;48.990;12.146;2023-11-21T11:54:02;97467.97;;;16.70;62.09
68996;BME280;56056;48.990;12.146;2023-11-21T11:56:29;97474.88;;;16.71;63.68
68996;BME280;56056;48.990;12.146;2023-11-21T11:59:02;97477.59;;;16.90;63.14
68996;BME280;56056;48.990;12.146;2023-11-21T12:01:32;97466.66;;;16.79;63.36
68996;BME280;56056;48.990;12.146;2023-11-21T12:04:23;97474.03;;;16.77;63.15
68996;BME280;56056;48.990;12.146;2023-11-21T12:06:52;97467.34;;;16.50;63.15
68996;BME280;56056;48.990;12.146;2023-11-21T12:09:19;97477.63;;;16.33;64.53
68996;BME280;56056;48.990;12.146;2023-11-21T12:11:46;97474.06;;;16.21;64.18
68996;BME280;56056;48.990;12.146;2023-11-21T12:14:13;97465.09;;;16.22;63.67
68996;BME280;56056;48.990;12.146;2023-11-21T12:16:41;97468.13;;;16.25;63.67
68996;BME280;56056;48.990;12.146;2023-11-21T12:19:08;97467.28;;;16.31;63.35
68996;BME280;56056;48.990;12.146;2023-11-21T12:21:35;97466.78;;;16.16;64.68
68996;BME280;56056;48.990;12.146;2023-11-21T12:24:01;97464.28;;;16.21;65.18
68996;BME280;56056;48.990;12.146;2023-11-21T12:26:28;97463.59;;;16.32;63.96
68996;BME280;56056;48.990;12.146;2023-11-21T12:28:54;97464.88;;;16.23;63.89
68996;BME280;56056;48.990;12.146;2023-11-21T12:31:23;97455.53;;;16.21;63.35
68996;BME280;56056;48.990;12.146;2023-11-21T12:33:51;97458.03;;;16.41;64.72
68996;BME280;56056;48.990;12.146;2023-11-21T12:36:17;97462.03;;;16.50;63.63
68996;BME280;56056;48.990;12.146;2023-11-21T12:38:43;97460.78;;;16.52;62.90
68996;BME280;56056;48.990;12.146;2023-11-21T12:41:09;97478.66;;;16.57;62.04
68996;BME280;56056;48.990;12.146;2023-11-21T12:43:38;97470.94;;;16.55;62.78
68996;BME280;56056;48.990;12.146;2023-11-21T12:46:06;97474.63;;;16.54;63.22
68996;BME280;56056;48.990;12.146;2023-11-21T12:48:32;97483.75;;;16.58;63.64
68996;BME280;56056;48.990;12.146;2023-11-21T12:50:59;97479.63;;;16.62;65.23